Boulder City, NV

7:41 AM PST on November 24, 2017 (GMT -0800)
Boulder City

Weather History for KBVU - June, 2013

Change the Weather History Date:

Saturday, June 15, 2013

  Actual Average (KLAS) Record (KLAS)
Temperature  
Mean Temperature 84 °F -  
Max Temperature 102 °F 97 °F 116 °F (1940)
Min Temperature 66 °F 69 °F 52 °F (1962)
Cooling Degree Days 19    
Growing Degree Days 34 (Base 50)    
Moisture  
Dew Point 13 °F    
Average Humidity 9    
Maximum Humidity 24    
Minimum Humidity 4    
Precipitation  
Precipitation 0.00 in - - ()
Sea Level Pressure  
Sea Level Pressure 29.82 in    
Wind  
Wind Speed 7 mph (South)    
Max Wind Speed 24 mph    
Max Gust Speed 37 mph    
Visibility 10 miles    
Events Thunderstorm    
Averages and records for this station are not official NWS values.
T = Trace of Precipitation, MM = Missing Value Source: NWS Daily Summary

Daily Weather History Graph

Daily Weather History Graph

Search for Another Location

Airport or City:

Trip Planner

Search our weather history database for the weather conditions in past years. The results will help you decide how hot, cold, wet, or windy it might be!

Date:

Astronomy

Jun. 15, 2013 Rise Set
Actual Time 5:22 AM PDT 7:57 PM PDT
Civil Twilight 4:52 AM PDT 8:28 PM PDT
Nautical Twilight 4:14 AM PDT 9:05 PM PDT
Astronomical Twilight 3:32 AM PDT 9:47 PM PDT
Moon 11:49 AM PDT (6/15) No Moon Set
Length of Visible Light 15h 35m
Length of Day
14h 35m
Waxing Crescent, 40% of the Moon is Illuminated
Jun 15
Waxing Crescent
Jun 16
First Quarter
Jun 23
Full
Jun 29
Last Quarter
Jul 8
New

Hourly Weather History & Observations

Time (PDT) Temp. Dew Point Humidity Pressure Visibility Wind Dir Wind Speed Gust Speed Precip Events Conditions
12:15 AM 75.2 °F 8.6 °F 8% 29.79 in 10.0 mi WNW 3.5 mph - N/A   Clear
12:35 AM 73.4 °F 19.4 °F 13% 29.79 in 10.0 mi NW 3.5 mph - N/A   Clear
12:55 AM 73.4 °F 15.8 °F 11% 29.78 in 10.0 mi WNW 3.5 mph - N/A   Clear
1:15 AM 73.4 °F 17.6 °F 12% 29.78 in 10.0 mi West 3.5 mph - N/A   Clear
1:35 AM 69.8 °F 24.8 °F 18% 29.78 in 10.0 mi Calm Calm - N/A   Clear
1:55 AM 71.6 °F 24.8 °F 17% 29.78 in 10.0 mi NE 3.5 mph - N/A   Clear
2:15 AM 68.0 °F 28.4 °F 23% 29.79 in 10.0 mi Calm Calm - N/A   Clear
2:35 AM 69.8 °F 19.4 °F 15% 29.78 in 10.0 mi NNW 4.6 mph - N/A   Clear
2:55 AM 71.6 °F 15.8 °F 12% 29.78 in 10.0 mi North 4.6 mph - N/A   Clear
3:15 AM 69.8 °F 21.2 °F 16% 29.79 in 10.0 mi Calm Calm - N/A   Clear
3:35 AM 69.8 °F 21.2 °F 16% 29.79 in 10.0 mi NNW 3.5 mph - N/A   Clear
3:55 AM 68.0 °F 24.8 °F 20% 29.79 in 10.0 mi North 3.5 mph - N/A   Clear
4:15 AM 68.0 °F 23.0 °F 18% 29.80 in 10.0 mi Calm Calm - N/A   Clear
4:35 AM 66.2 °F 24.8 °F 21% 29.80 in 10.0 mi North 3.5 mph - N/A   Clear
4:55 AM 66.2 °F 28.4 °F 24% 29.81 in 10.0 mi Calm Calm - N/A   Clear
5:15 AM 69.8 °F 10.4 °F 10% 29.82 in 10.0 mi NW 4.6 mph - N/A   Clear
5:35 AM 68.0 °F 15.8 °F 13% 29.82 in 10.0 mi Calm Calm - N/A   Clear
5:55 AM 68.0 °F 17.6 °F 15% 29.82 in 10.0 mi NW 3.5 mph - N/A   Clear
6:15 AM 71.6 °F 17.6 °F 13% 29.83 in 10.0 mi Calm Calm - N/A   Clear
6:35 AM 75.2 °F 10.4 °F 8% 29.84 in 10.0 mi Calm Calm - N/A   Clear
6:55 AM 77.0 °F 21.2 °F 12% 29.84 in 10.0 mi NW 3.5 mph - N/A   Clear
7:15 AM 77.0 °F 6.8 °F 7% 29.85 in 10.0 mi Calm Calm - N/A   Clear
7:35 AM 78.8 °F 12.2 °F 8% 29.85 in 10.0 mi Calm Calm - N/A   Clear
7:55 AM 80.6 °F 14.0 °F 8% 29.86 in 10.0 mi Calm Calm - N/A   Clear
8:15 AM 82.4 °F 10.4 °F 7% 29.86 in 10.0 mi Calm Calm - N/A   Clear
8:35 AM 86.0 °F 10.4 °F 6% 29.87 in 10.0 mi Calm Calm - N/A   Clear
8:55 AM 87.8 °F 10.4 °F 6% 29.87 in 10.0 mi SE 3.5 mph - N/A   Clear
9:15 AM 89.6 °F 14.0 °F 6% 29.87 in 10.0 mi ESE 6.9 mph - N/A   Clear
9:35 AM 89.6 °F 14.0 °F 6% 29.87 in 10.0 mi SSE 6.9 mph - N/A   Clear
9:55 AM 91.4 °F 15.8 °F 6% 29.87 in 10.0 mi South 6.9 mph - N/A   Clear
10:15 AM 91.4 °F 14.0 °F 6% 29.87 in 10.0 mi SW 4.6 mph 16.1 mph N/A   Clear
10:35 AM 93.2 °F 19.4 °F 7% 29.87 in 10.0 mi SE 12.7 mph 16.1 mph N/A   Clear
10:55 AM 93.2 °F 19.4 °F 7% 29.87 in 10.0 mi SSE 9.2 mph 20.7 mph N/A Thunderstorm Clear
11:15 AM 95.0 °F 21.2 °F 7% 29.86 in 10.0 mi SE 17.3 mph 21.9 mph N/A   Clear
11:35 AM 95.0 °F 23.0 °F 8% 29.86 in 10.0 mi SE 17.3 mph 21.9 mph N/A   Clear
11:55 AM 96.8 °F 21.2 °F 7% 29.86 in 10.0 mi SE 17.3 mph 24.2 mph N/A   Clear
12:15 PM 95.0 °F 23.0 °F 8% 29.85 in 10.0 mi SSE 21.9 mph 27.6 mph N/A   Clear
12:35 PM 98.6 °F 23.0 °F 7% 29.84 in 10.0 mi SE 18.4 mph 24.2 mph N/A   Clear
12:55 PM 98.6 °F 21.2 °F 6% 29.84 in 10.0 mi SSE 18.4 mph 27.6 mph N/A   Clear
1:15 PM 98.6 °F 23.0 °F 7% 29.83 in 10.0 mi South 20.7 mph 29.9 mph N/A   Clear
1:35 PM 100.4 °F 23.0 °F 6% 29.83 in 10.0 mi SSE 21.9 mph 34.5 mph N/A   Clear
1:55 PM 100.4 °F 17.6 °F 5% 29.82 in 10.0 mi SSE 24.2 mph 34.5 mph N/A   Clear
2:15 PM 100.4 °F 10.4 °F 4% 29.81 in 10.0 mi South 17.3 mph 32.2 mph N/A Thunderstorm Clear
2:35 PM 100.4 °F 8.6 °F 4% 29.80 in 10.0 mi SSW 24.2 mph 32.2 mph N/A   Clear
2:55 PM 102.2 °F -0.4 °F 4% 29.80 in 10.0 mi South 21.9 mph 28.8 mph N/A   Clear
3:15 PM 100.4 °F 3.2 °F 4% 29.79 in 10.0 mi South 21.9 mph 27.6 mph N/A   Clear
3:35 PM 102.2 °F 6.8 °F 4% 29.79 in 10.0 mi SSE 12.7 mph 29.9 mph N/A   Clear
3:55 PM 100.4 °F -0.4 °F 4% 29.79 in 10.0 mi South 20.7 mph 28.8 mph N/A   Clear
4:15 PM 100.4 °F -0.4 °F 4% 29.78 in 10.0 mi South 13.8 mph 24.2 mph N/A   Clear
4:35 PM 100.4 °F -2.2 °F 4% 29.78 in 10.0 mi South 20.7 mph 27.6 mph N/A   Clear
4:55 PM 100.4 °F -2.2 °F 4% 29.78 in 10.0 mi South 19.6 mph 29.9 mph N/A   Clear
5:15 PM 100.4 °F -2.2 °F 4% 29.77 in 10.0 mi SSE 20.7 mph 28.8 mph N/A   Clear
5:35 PM 100.4 °F -0.4 °F 4% 29.77 in 10.0 mi SSW 16.1 mph 24.2 mph N/A   Clear
5:55 PM 98.6 °F -0.4 °F 4% 29.77 in 10.0 mi South 16.1 mph 27.6 mph N/A   Clear
6:15 PM 98.6 °F -0.4 °F 4% 29.78 in 10.0 mi South 17.3 mph 24.2 mph N/A   Clear
6:35 PM 98.6 °F -0.4 °F 4% 29.78 in 10.0 mi South 18.4 mph 24.2 mph N/A   Clear
6:55 PM 96.8 °F -0.4 °F 4% 29.78 in 10.0 mi South 24.2 mph 36.8 mph N/A   Clear
7:15 PM 95.0 °F -0.4 °F 4% 29.79 in 10.0 mi WSW 11.5 mph - N/A   Clear
7:35 PM 95.0 °F -2.2 °F 4% 29.80 in 10.0 mi WSW 9.2 mph - N/A   Clear
7:55 PM 91.4 °F -0.4 °F 4% 29.80 in 10.0 mi SW 6.9 mph - N/A   Clear
8:15 PM 89.6 °F -0.4 °F 4% 29.81 in 10.0 mi WSW 6.9 mph - N/A   Clear
8:35 PM 89.6 °F -0.4 °F 4% 29.81 in 10.0 mi SW 5.8 mph - N/A   Clear
8:55 PM 89.6 °F -0.4 °F 4% 29.81 in 10.0 mi South 5.8 mph - N/A   Clear
9:15 PM 86.0 °F 1.4 °F 4% 29.82 in 10.0 mi Calm Calm - N/A   Clear
9:35 PM 80.6 °F 21.2 °F 11% 29.83 in 10.0 mi ENE 3.5 mph - N/A   Clear
9:55 PM 82.4 °F 17.6 °F 9% 29.84 in 10.0 mi East 3.5 mph - N/A   Clear
10:15 PM 75.2 °F 28.4 °F 18% 29.84 in 10.0 mi ENE 3.5 mph - N/A   Clear
10:35 PM 75.2 °F 28.4 °F 18% 29.84 in 10.0 mi ENE 4.6 mph - N/A   Clear
10:55 PM 77.0 °F 24.8 °F 14% 29.84 in 10.0 mi Calm Calm - N/A Thunderstorm Clear
11:15 PM 77.0 °F 19.4 °F 12% 29.84 in 10.0 mi East 5.8 mph - N/A   Clear
11:35 PM 75.2 °F 23.0 °F 14% 29.84 in 10.0 mi Calm Calm - N/A   Clear
11:55 PM 75.2 °F 15.8 °F 11% 29.84 in 10.0 mi NW 3.5 mph - N/A   Clear